sensor_id;sensor_type;location;lat;lon;timestamp;pressure;altitude;pressure_sealevel;temperature;humidity
12358;BME280;6243;51.244;6.774;2023-08-06T00:01:15;115150.97;;;-141.28;42.41
12358;BME280;6243;51.244;6.774;2023-08-06T00:03:40;115150.97;;;-141.28;41.76
12358;BME280;6243;51.244;6.774;2023-08-06T00:06:06;115150.97;;;-141.28;41.45
12358;BME280;6243;51.244;6.774;2023-08-06T00:08:33;115150.97;;;-141.28;41.30
12358;BME280;6243;51.244;6.774;2023-08-06T00:10:58;115150.97;;;-141.28;40.96
12358;BME280;6243;51.244;6.774;2023-08-06T00:13:24;115150.97;;;-141.28;41.31
12358;BME280;6243;51.244;6.774;2023-08-06T00:15:49;115150.97;;;-141.28;41.05
12358;BME280;6243;51.244;6.774;2023-08-06T00:18:15;115150.97;;;-141.28;40.74
12358;BME280;6243;51.244;6.774;2023-08-06T00:20:40;115150.97;;;-141.28;40.60
12358;BME280;6243;51.244;6.774;2023-08-06T00:23:06;115150.97;;;-141.28;40.93
12358;BME280;6243;51.244;6.774;2023-08-06T00:25:33;115150.97;;;-141.28;40.63
12358;BME280;6243;51.244;6.774;2023-08-06T00:27:58;115150.97;;;-141.28;41.62
12358;BME280;6243;51.244;6.774;2023-08-06T00:30:24;115150.97;;;-141.28;40.30
12358;BME280;6243;51.244;6.774;2023-08-06T00:32:49;115150.97;;;-141.28;40.20
12358;BME280;6243;51.244;6.774;2023-08-06T00:35:15;115150.97;;;-141.28;40.74
12358;BME280;6243;51.244;6.774;2023-08-06T00:37:40;115150.97;;;-141.28;40.94
12358;BME280;6243;51.244;6.774;2023-08-06T00:40:07;115150.97;;;-141.28;40.67
12358;BME280;6243;51.244;6.774;2023-08-06T00:42:34;115150.97;;;-141.28;40.28
12358;BME280;6243;51.244;6.774;2023-08-06T00:44:59;115150.97;;;-141.28;39.88
12358;BME280;6243;51.244;6.774;2023-08-06T00:47:25;115150.97;;;-141.28;40.23
12358;BME280;6243;51.244;6.774;2023-08-06T00:49:51;115150.97;;;-141.28;40.66
12358;BME280;6243;51.244;6.774;2023-08-06T00:52:17;115150.97;;;-141.28;40.53
12358;BME280;6243;51.244;6.774;2023-08-06T00:54:42;115150.97;;;-141.28;40.56
12358;BME280;6243;51.244;6.774;2023-08-06T00:57:09;115150.97;;;-141.28;40.98
12358;BME280;6243;51.244;6.774;2023-08-06T00:59:36;115150.97;;;-141.28;40.80
12358;BME280;6243;51.244;6.774;2023-08-06T01:02:02;115150.97;;;-141.28;41.02
12358;BME280;6243;51.244;6.774;2023-08-06T01:04:28;115150.97;;;-141.28;40.93
12358;BME280;6243;51.244;6.774;2023-08-06T01:07:01;115150.97;;;-141.28;41.76
12358;BME280;6243;51.244;6.774;2023-08-06T01:09:35;115150.97;;;-141.28;42.95
12358;BME280;6243;51.244;6.774;2023-08-06T01:12:25;115150.97;;;-141.28;41.98
12358;BME280;6243;51.244;6.774;2023-08-06T01:15:06;115150.97;;;-141.28;42.00
12358;BME280;6243;51.244;6.774;2023-08-06T01:17:34;115150.97;;;-141.28;41.70
12358;BME280;6243;51.244;6.774;2023-08-06T01:19:59;115150.97;;;-141.28;41.19
12358;BME280;6243;51.244;6.774;2023-08-06T01:22:26;115150.97;;;-141.28;42.42
12358;BME280;6243;51.244;6.774;2023-08-06T01:24:52;115150.97;;;-141.28;42.18
12358;BME280;6243;51.244;6.774;2023-08-06T01:27:23;115150.97;;;-141.28;41.09
12358;BME280;6243;51.244;6.774;2023-08-06T01:29:57;115150.97;;;-141.28;41.45
12358;BME280;6243;51.244;6.774;2023-08-06T01:32:27;115150.97;;;-141.28;40.64
12358;BME280;6243;51.244;6.774;2023-08-06T01:34:55;115150.97;;;-141.28;40.76
12358;BME280;6243;51.244;6.774;2023-08-06T01:37:21;115150.97;;;-141.28;40.61
12358;BME280;6243;51.244;6.774;2023-08-06T01:39:49;115150.97;;;-141.28;40.37
12358;BME280;6243;51.244;6.774;2023-08-06T01:42:15;115150.97;;;-141.28;40.74
12358;BME280;6243;51.244;6.774;2023-08-06T01:44:40;115150.97;;;-141.28;40.43
12358;BME280;6243;51.244;6.774;2023-08-06T01:47:06;115150.97;;;-141.28;40.73
12358;BME280;6243;51.244;6.774;2023-08-06T01:49:31;115150.97;;;-141.28;40.96
12358;BME280;6243;51.244;6.774;2023-08-06T01:51:57;115150.97;;;-141.28;41.20
12358;BME280;6243;51.244;6.774;2023-08-06T01:54:22;115150.97;;;-141.28;40.99
12358;BME280;6243;51.244;6.774;2023-08-06T01:56:49;115150.97;;;-141.28;40.45
12358;BME280;6243;51.244;6.774;2023-08-06T01:59:15;115150.97;;;-141.28;40.64
12358;BME280;6243;51.244;6.774;2023-08-06T02:01:40;115150.97;;;-141.28;40.71
12358;BME280;6243;51.244;6.774;2023-08-06T02:04:06;115150.97;;;-141.28;41.44
12358;BME280;6243;51.244;6.774;2023-08-06T02:06:31;115150.97;;;-141.28;41.62
12358;BME280;6243;51.244;6.774;2023-08-06T02:08:57;115150.97;;;-141.28;41.10
12358;BME280;6243;51.244;6.774;2023-08-06T02:11:22;115150.97;;;-141.28;40.52
12358;BME280;6243;51.244;6.774;2023-08-06T02:13:49;115150.97;;;-141.28;41.04
12358;BME280;6243;51.244;6.774;2023-08-06T02:16:14;115150.97;;;-141.28;40.21
12358;BME280;6243;51.244;6.774;2023-08-06T02:18:40;115150.97;;;-141.28;39.48
12358;BME280;6243;51.244;6.774;2023-08-06T02:21:05;115150.97;;;-141.28;39.65
12358;BME280;6243;51.244;6.774;2023-08-06T02:23:31;115150.97;;;-141.28;39.73
12358;BME280;6243;51.244;6.774;2023-08-06T02:25:58;115150.97;;;-141.28;40.00
12358;BME280;6243;51.244;6.774;2023-08-06T02:28:23;115150.97;;;-141.28;39.36
12358;BME280;6243;51.244;6.774;2023-08-06T02:30:51;115150.97;;;-141.28;39.72
12358;BME280;6243;51.244;6.774;2023-08-06T02:33:17;115150.97;;;-141.28;40.04
12358;BME280;6243;51.244;6.774;2023-08-06T02:35:42;115150.97;;;-141.28;40.00
12358;BME280;6243;51.244;6.774;2023-08-06T02:38:08;115150.97;;;-141.28;40.01
12358;BME280;6243;51.244;6.774;2023-08-06T02:40:33;115150.97;;;-141.28;39.80
12358;BME280;6243;51.244;6.774;2023-08-06T02:42:59;115150.97;;;-141.28;40.08
12358;BME280;6243;51.244;6.774;2023-08-06T02:45:24;115150.97;;;-141.28;40.35
12358;BME280;6243;51.244;6.774;2023-08-06T02:47:51;115150.97;;;-141.28;40.17
12358;BME280;6243;51.244;6.774;2023-08-06T02:50:17;115150.97;;;-141.28;40.16
12358;BME280;6243;51.244;6.774;2023-08-06T02:52:42;115150.97;;;-141.28;40.72
12358;BME280;6243;51.244;6.774;2023-08-06T02:55:08;115150.97;;;-141.28;40.68
12358;BME280;6243;51.244;6.774;2023-08-06T02:57:33;115150.97;;;-141.28;41.53
12358;BME280;6243;51.244;6.774;2023-08-06T02:59:59;115150.97;;;-141.28;40.66
12358;BME280;6243;51.244;6.774;2023-08-06T03:02:24;115150.97;;;-141.28;40.64
12358;BME280;6243;51.244;6.774;2023-08-06T03:04:51;115150.97;;;-141.28;40.94
12358;BME280;6243;51.244;6.774;2023-08-06T03:07:17;115150.97;;;-141.28;40.43
12358;BME280;6243;51.244;6.774;2023-08-06T03:09:42;115150.97;;;-141.28;40.59
12358;BME280;6243;51.244;6.774;2023-08-06T03:12:08;115150.97;;;-141.28;41.23
12358;BME280;6243;51.244;6.774;2023-08-06T03:14:33;115150.97;;;-141.28;40.96
12358;BME280;6243;51.244;6.774;2023-08-06T03:16:59;115150.97;;;-141.28;40.47
12358;BME280;6243;51.244;6.774;2023-08-06T03:19:24;115150.97;;;-141.28;40.72
12358;BME280;6243;51.244;6.774;2023-08-06T03:21:51;115150.97;;;-141.28;40.51
12358;BME280;6243;51.244;6.774;2023-08-06T03:24:17;115150.97;;;-141.28;40.38
12358;BME280;6243;51.244;6.774;2023-08-06T03:26:42;115150.97;;;-141.28;39.95
12358;BME280;6243;51.244;6.774;2023-08-06T03:29:08;115150.97;;;-141.28;41.46
12358;BME280;6243;51.244;6.774;2023-08-06T03:31:33;115150.97;;;-141.28;40.51
12358;BME280;6243;51.244;6.774;2023-08-06T03:33:59;115150.97;;;-141.28;41.11
12358;BME280;6243;51.244;6.774;2023-08-06T03:36:24;115150.97;;;-141.28;40.58
12358;BME280;6243;51.244;6.774;2023-08-06T03:38:51;115150.97;;;-141.28;40.51
12358;BME280;6243;51.244;6.774;2023-08-06T03:41:16;115150.97;;;-141.28;40.16
12358;BME280;6243;51.244;6.774;2023-08-06T03:43:42;115150.97;;;-141.28;40.45
12358;BME280;6243;51.244;6.774;2023-08-06T03:46:08;115150.97;;;-141.28;41.08
12358;BME280;6243;51.244;6.774;2023-08-06T03:48:33;115150.97;;;-141.28;41.27
12358;BME280;6243;51.244;6.774;2023-08-06T03:50:59;115150.97;;;-141.28;41.87
12358;BME280;6243;51.244;6.774;2023-08-06T03:53:24;115150.97;;;-141.28;40.84
12358;BME280;6243;51.244;6.774;2023-08-06T03:55:51;115150.97;;;-141.28;41.44
12358;BME280;6243;51.244;6.774;2023-08-06T03:58:16;115150.97;;;-141.28;40.96
12358;BME280;6243;51.244;6.774;2023-08-06T04:00:42;115150.97;;;-141.28;40.79
12358;BME280;6243;51.244;6.774;2023-08-06T04:03:07;115150.97;;;-141.28;40.66
12358;BME280;6243;51.244;6.774;2023-08-06T04:05:33;115150.97;;;-141.28;40.75
12358;BME280;6243;51.244;6.774;2023-08-06T04:07:58;115150.97;;;-141.28;42.38
12358;BME280;6243;51.244;6.774;2023-08-06T04:10:24;115150.97;;;-141.28;41.66
12358;BME280;6243;51.244;6.774;2023-08-06T04:12:50;115150.97;;;-141.28;41.67
12358;BME280;6243;51.244;6.774;2023-08-06T04:15:16;115150.97;;;-141.28;41.72
12358;BME280;6243;51.244;6.774;2023-08-06T04:17:42;115150.97;;;-141.28;41.07
12358;BME280;6243;51.244;6.774;2023-08-06T04:20:08;115150.97;;;-141.28;41.61
12358;BME280;6243;51.244;6.774;2023-08-06T04:22:33;115150.97;;;-141.28;41.96
12358;BME280;6243;51.244;6.774;2023-08-06T04:24:59;115150.97;;;-141.28;41.87
12358;BME280;6243;51.244;6.774;2023-08-06T04:27:25;115150.97;;;-141.28;41.59
12358;BME280;6243;51.244;6.774;2023-08-06T04:29:52;115150.97;;;-141.28;42.38
12358;BME280;6243;51.244;6.774;2023-08-06T04:32:17;115150.97;;;-141.28;42.57
12358;BME280;6243;51.244;6.774;2023-08-06T04:34:43;115150.97;;;-141.28;41.71
12358;BME280;6243;51.244;6.774;2023-08-06T04:37:08;115150.97;;;-141.28;42.13
12358;BME280;6243;51.244;6.774;2023-08-06T04:39:34;115150.97;;;-141.28;42.13
12358;BME280;6243;51.244;6.774;2023-08-06T04:41:59;115150.97;;;-141.28;41.77
12358;BME280;6243;51.244;6.774;2023-08-06T04:44:25;115150.97;;;-141.28;42.38
12358;BME280;6243;51.244;6.774;2023-08-06T04:46:52;115150.97;;;-141.28;41.86
12358;BME280;6243;51.244;6.774;2023-08-06T04:49:17;115150.97;;;-141.28;41.85
12358;BME280;6243;51.244;6.774;2023-08-06T04:51:43;115150.97;;;-141.28;41.81
12358;BME280;6243;51.244;6.774;2023-08-06T04:54:08;115150.97;;;-141.28;42.82
12358;BME280;6243;51.244;6.774;2023-08-06T04:56:34;115150.97;;;-141.28;41.60
12358;BME280;6243;51.244;6.774;2023-08-06T04:58:59;115150.97;;;-141.28;41.60
12358;BME280;6243;51.244;6.774;2023-08-06T05:01:25;115150.97;;;-141.28;42.37
12358;BME280;6243;51.244;6.774;2023-08-06T05:03:52;115150.97;;;-141.28;41.82
12358;BME280;6243;51.244;6.774;2023-08-06T05:06:17;115150.97;;;-141.28;42.97
12358;BME280;6243;51.244;6.774;2023-08-06T05:08:43;115150.97;;;-141.28;41.82
12358;BME280;6243;51.244;6.774;2023-08-06T05:11:09;115150.97;;;-141.28;42.03
12358;BME280;6243;51.244;6.774;2023-08-06T05:13:34;115150.97;;;-141.28;42.55
12358;BME280;6243;51.244;6.774;2023-08-06T05:16:00;115150.97;;;-141.28;42.30
12358;BME280;6243;51.244;6.774;2023-08-06T05:18:25;115150.97;;;-141.28;41.98
12358;BME280;6243;51.244;6.774;2023-08-06T05:20:52;115150.97;;;-141.28;42.11
12358;BME280;6243;51.244;6.774;2023-08-06T05:23:18;115150.97;;;-141.28;42.20
12358;BME280;6243;51.244;6.774;2023-08-06T05:25:43;115150.97;;;-141.28;41.62
12358;BME280;6243;51.244;6.774;2023-08-06T05:28:09;115150.97;;;-141.28;41.63
12358;BME280;6243;51.244;6.774;2023-08-06T05:30:39;115150.97;;;-141.28;41.78
12358;BME280;6243;51.244;6.774;2023-08-06T05:33:04;115150.97;;;-141.28;41.75
12358;BME280;6243;51.244;6.774;2023-08-06T05:35:30;115150.97;;;-141.28;41.34
12358;BME280;6243;51.244;6.774;2023-08-06T05:37:57;115150.97;;;-141.28;41.93
12358;BME280;6243;51.244;6.774;2023-08-06T05:40:22;115150.97;;;-141.28;42.15
12358;BME280;6243;51.244;6.774;2023-08-06T05:42:48;115150.97;;;-141.28;40.90
12358;BME280;6243;51.244;6.774;2023-08-06T05:45:14;115150.97;;;-141.28;40.84
12358;BME280;6243;51.244;6.774;2023-08-06T05:47:39;115150.97;;;-141.28;40.71
12358;BME280;6243;51.244;6.774;2023-08-06T05:50:06;115150.97;;;-141.28;41.07
12358;BME280;6243;51.244;6.774;2023-08-06T05:52:32;115150.97;;;-141.28;41.07
12358;BME280;6243;51.244;6.774;2023-08-06T05:54:59;115150.97;;;-141.28;41.40
12358;BME280;6243;51.244;6.774;2023-08-06T05:57:24;115150.97;;;-141.28;41.16
12358;BME280;6243;51.244;6.774;2023-08-06T05:59:50;115150.97;;;-141.28;40.68
12358;BME280;6243;51.244;6.774;2023-08-06T06:02:15;115150.97;;;-141.28;41.33
12358;BME280;6243;51.244;6.774;2023-08-06T06:04:41;115150.97;;;-141.28;41.05
12358;BME280;6243;51.244;6.774;2023-08-06T06:07:06;115150.97;;;-141.28;41.06
12358;BME280;6243;51.244;6.774;2023-08-06T06:09:32;115150.97;;;-141.28;41.46
12358;BME280;6243;51.244;6.774;2023-08-06T06:11:59;115150.97;;;-141.28;41.19
12358;BME280;6243;51.244;6.774;2023-08-06T06:14:24;115150.97;;;-141.28;41.13
12358;BME280;6243;51.244;6.774;2023-08-06T06:16:49;115150.97;;;-141.28;41.52
12358;BME280;6243;51.244;6.774;2023-08-06T06:19:15;115150.97;;;-141.28;42.05
12358;BME280;6243;51.244;6.774;2023-08-06T06:21:40;115150.97;;;-141.28;41.42
12358;BME280;6243;51.244;6.774;2023-08-06T06:24:06;115150.97;;;-141.28;40.78
12358;BME280;6243;51.244;6.774;2023-08-06T06:26:32;115150.97;;;-141.28;40.50
12358;BME280;6243;51.244;6.774;2023-08-06T06:28:58;115150.97;;;-141.28;41.27
12358;BME280;6243;51.244;6.774;2023-08-06T06:31:24;115150.97;;;-141.28;41.18
12358;BME280;6243;51.244;6.774;2023-08-06T06:33:49;115150.97;;;-141.28;41.09
12358;BME280;6243;51.244;6.774;2023-08-06T06:36:15;115150.97;;;-141.28;40.64
12358;BME280;6243;51.244;6.774;2023-08-06T06:38:40;115150.97;;;-141.28;40.84
12358;BME280;6243;51.244;6.774;2023-08-06T06:41:06;115150.97;;;-141.28;39.89
12358;BME280;6243;51.244;6.774;2023-08-06T06:43:32;115150.97;;;-141.28;39.77
12358;BME280;6243;51.244;6.774;2023-08-06T06:45:59;115150.97;;;-141.28;39.94
12358;BME280;6243;51.244;6.774;2023-08-06T06:48:25;115150.97;;;-141.28;39.85
12358;BME280;6243;51.244;6.774;2023-08-06T06:50:51;115150.97;;;-141.28;40.20
12358;BME280;6243;51.244;6.774;2023-08-06T06:53:16;115150.97;;;-141.28;40.34
12358;BME280;6243;51.244;6.774;2023-08-06T06:55:42;115150.97;;;-141.28;40.13
12358;BME280;6243;51.244;6.774;2023-08-06T06:58:07;115150.97;;;-141.28;40.18
12358;BME280;6243;51.244;6.774;2023-08-06T07:00:35;115150.97;;;-141.28;40.42
12358;BME280;6243;51.244;6.774;2023-08-06T07:03:02;115150.97;;;-141.28;40.33
12358;BME280;6243;51.244;6.774;2023-08-06T07:05:28;115150.97;;;-141.28;40.16
12358;BME280;6243;51.244;6.774;2023-08-06T07:07:53;115150.97;;;-141.28;40.36
12358;BME280;6243;51.244;6.774;2023-08-06T07:10:19;115150.97;;;-141.28;40.30
12358;BME280;6243;51.244;6.774;2023-08-06T07:12:44;115150.97;;;-141.28;40.80
12358;BME280;6243;51.244;6.774;2023-08-06T07:15:10;115150.97;;;-141.28;40.77
12358;BME280;6243;51.244;6.774;2023-08-06T07:17:36;115150.97;;;-141.28;41.22
12358;BME280;6243;51.244;6.774;2023-08-06T07:20:04;115150.97;;;-141.28;40.70
12358;BME280;6243;51.244;6.774;2023-08-06T07:22:29;115150.97;;;-141.28;40.54
12358;BME280;6243;51.244;6.774;2023-08-06T07:24:55;115150.97;;;-141.28;40.25
12358;BME280;6243;51.244;6.774;2023-08-06T07:27:20;115150.97;;;-141.28;40.28
12358;BME280;6243;51.244;6.774;2023-08-06T07:29:46;115150.97;;;-141.28;40.05
12358;BME280;6243;51.244;6.774;2023-08-06T07:32:11;115150.97;;;-141.28;40.31
12358;BME280;6243;51.244;6.774;2023-08-06T07:34:37;115150.97;;;-141.28;40.38
12358;BME280;6243;51.244;6.774;2023-08-06T07:37:04;115150.97;;;-141.28;40.08
12358;BME280;6243;51.244;6.774;2023-08-06T07:39:30;115150.97;;;-141.28;40.08
12358;BME280;6243;51.244;6.774;2023-08-06T07:41:55;115150.97;;;-141.28;39.84
12358;BME280;6243;51.244;6.774;2023-08-06T07:44:21;115150.97;;;-141.28;40.10
12358;BME280;6243;51.244;6.774;2023-08-06T07:46:46;115150.97;;;-141.28;40.60
12358;BME280;6243;51.244;6.774;2023-08-06T07:49:12;115150.97;;;-141.28;40.50
12358;BME280;6243;51.244;6.774;2023-08-06T07:51:37;115150.97;;;-141.28;40.33
12358;BME280;6243;51.244;6.774;2023-08-06T07:54:05;115150.97;;;-141.28;40.25
12358;BME280;6243;51.244;6.774;2023-08-06T07:56:30;115150.97;;;-141.28;40.18
12358;BME280;6243;51.244;6.774;2023-08-06T07:58:56;115150.97;;;-141.28;39.55
12358;BME280;6243;51.244;6.774;2023-08-06T08:01:21;115150.97;;;-141.28;39.95
12358;BME280;6243;51.244;6.774;2023-08-06T08:03:47;115150.97;;;-141.28;40.00
12358;BME280;6243;51.244;6.774;2023-08-06T08:06:12;115150.97;;;-141.28;39.60
12358;BME280;6243;51.244;6.774;2023-08-06T08:08:38;115150.97;;;-141.28;39.81
12358;BME280;6243;51.244;6.774;2023-08-06T08:11:05;115150.97;;;-141.28;39.24
12358;BME280;6243;51.244;6.774;2023-08-06T08:13:31;115150.97;;;-141.28;39.16
12358;BME280;6243;51.244;6.774;2023-08-06T08:15:57;115150.97;;;-141.28;39.70
12358;BME280;6243;51.244;6.774;2023-08-06T08:18:22;115150.97;;;-141.28;39.38
12358;BME280;6243;51.244;6.774;2023-08-06T08:20:48;115150.97;;;-141.28;38.66
12358;BME280;6243;51.244;6.774;2023-08-06T08:23:13;115150.97;;;-141.28;38.96
12358;BME280;6243;51.244;6.774;2023-08-06T08:25:39;115150.97;;;-141.28;37.83
12358;BME280;6243;51.244;6.774;2023-08-06T08:28:06;115150.97;;;-141.28;38.26
12358;BME280;6243;51.244;6.774;2023-08-06T08:30:32;115150.97;;;-141.28;38.50
12358;BME280;6243;51.244;6.774;2023-08-06T08:32:57;115150.97;;;-141.28;38.25
12358;BME280;6243;51.244;6.774;2023-08-06T08:35:23;115150.97;;;-141.28;37.98
12358;BME280;6243;51.244;6.774;2023-08-06T08:37:48;115150.97;;;-141.28;37.62
12358;BME280;6243;51.244;6.774;2023-08-06T08:40:14;115150.97;;;-141.28;37.94
12358;BME280;6243;51.244;6.774;2023-08-06T08:42:40;115150.97;;;-141.28;37.74
12358;BME280;6243;51.244;6.774;2023-08-06T08:45:11;115150.97;;;-141.28;38.00
12358;BME280;6243;51.244;6.774;2023-08-06T08:47:37;115150.97;;;-141.28;37.57
12358;BME280;6243;51.244;6.774;2023-08-06T08:50:05;115150.97;;;-141.28;37.99
12358;BME280;6243;51.244;6.774;2023-08-06T08:52:32;115150.97;;;-141.28;37.85
12358;BME280;6243;51.244;6.774;2023-08-06T08:54:59;115150.97;;;-141.28;37.81
12358;BME280;6243;51.244;6.774;2023-08-06T08:57:26;115150.97;;;-141.28;37.47
12358;BME280;6243;51.244;6.774;2023-08-06T08:59:52;115150.97;;;-141.28;37.39
12358;BME280;6243;51.244;6.774;2023-08-06T09:02:21;115150.97;;;-141.28;36.39
12358;BME280;6243;51.244;6.774;2023-08-06T09:04:47;115150.97;;;-141.28;36.43
12358;BME280;6243;51.244;6.774;2023-08-06T09:07:16;115150.97;;;-141.28;36.93
12358;BME280;6243;51.244;6.774;2023-08-06T09:09:43;115150.97;;;-141.28;37.30
12358;BME280;6243;51.244;6.774;2023-08-06T09:12:14;115150.97;;;-141.28;38.38
12358;BME280;6243;51.244;6.774;2023-08-06T09:14:40;115150.97;;;-141.28;38.50
12358;BME280;6243;51.244;6.774;2023-08-06T09:17:05;115150.97;;;-141.28;39.03
12358;BME280;6243;51.244;6.774;2023-08-06T09:19:32;115150.97;;;-141.28;38.99
12358;BME280;6243;51.244;6.774;2023-08-06T09:21:58;115150.97;;;-141.28;38.48
12358;BME280;6243;51.244;6.774;2023-08-06T09:24:24;115150.97;;;-141.28;38.48
12358;BME280;6243;51.244;6.774;2023-08-06T09:26:49;115150.97;;;-141.28;38.92
12358;BME280;6243;51.244;6.774;2023-08-06T09:29:15;115150.97;;;-141.28;38.96
12358;BME280;6243;51.244;6.774;2023-08-06T09:31:41;115150.97;;;-141.28;39.32
12358;BME280;6243;51.244;6.774;2023-08-06T09:34:10;115150.97;;;-141.28;39.19
12358;BME280;6243;51.244;6.774;2023-08-06T09:36:40;115150.97;;;-141.28;39.23
12358;BME280;6243;51.244;6.774;2023-08-06T09:39:12;115150.97;;;-141.28;38.73
12358;BME280;6243;51.244;6.774;2023-08-06T09:41:38;115150.97;;;-141.28;39.68
12358;BME280;6243;51.244;6.774;2023-08-06T09:44:03;115150.97;;;-141.28;39.62
12358;BME280;6243;51.244;6.774;2023-08-06T09:46:32;115150.97;;;-141.28;39.76
12358;BME280;6243;51.244;6.774;2023-08-06T09:48:57;115150.97;;;-141.28;38.98
12358;BME280;6243;51.244;6.774;2023-08-06T09:51:23;115150.97;;;-141.28;38.82
12358;BME280;6243;51.244;6.774;2023-08-06T09:53:50;115150.97;;;-141.28;39.18
12358;BME280;6243;51.244;6.774;2023-08-06T09:56:17;115150.97;;;-141.28;38.91
12358;BME280;6243;51.244;6.774;2023-08-06T09:58:44;115150.97;;;-141.28;38.86
12358;BME280;6243;51.244;6.774;2023-08-06T10:01:10;115150.97;;;-141.28;39.37
12358;BME280;6243;51.244;6.774;2023-08-06T10:03:36;115150.97;;;-141.28;38.94
12358;BME280;6243;51.244;6.774;2023-08-06T10:06:03;115150.97;;;-141.28;40.02
12358;BME280;6243;51.244;6.774;2023-08-06T10:08:29;115150.97;;;-141.28;39.63
12358;BME280;6243;51.244;6.774;2023-08-06T10:10:56;115150.97;;;-141.28;40.43
12358;BME280;6243;51.244;6.774;2023-08-06T10:13:23;115150.97;;;-141.28;40.05
12358;BME280;6243;51.244;6.774;2023-08-06T10:15:50;115150.97;;;-141.28;40.25
12358;BME280;6243;51.244;6.774;2023-08-06T10:18:16;115150.97;;;-141.28;41.81
12358;BME280;6243;51.244;6.774;2023-08-06T10:20:43;115150.97;;;-141.28;41.77
12358;BME280;6243;51.244;6.774;2023-08-06T10:23:08;115150.97;;;-141.28;40.82
12358;BME280;6243;51.244;6.774;2023-08-06T10:25:35;115150.97;;;-141.28;40.79
12358;BME280;6243;51.244;6.774;2023-08-06T10:28:10;115150.97;;;-141.28;40.63
12358;BME280;6243;51.244;6.774;2023-08-06T10:30:41;115150.97;;;-141.28;40.50
12358;BME280;6243;51.244;6.774;2023-08-06T10:33:07;115150.97;;;-141.28;39.99
12358;BME280;6243;51.244;6.774;2023-08-06T10:35:36;115150.97;;;-141.28;39.95
12358;BME280;6243;51.244;6.774;2023-08-06T10:38:07;115150.97;;;-141.28;40.06
12358;BME280;6243;51.244;6.774;2023-08-06T10:40:33;115150.97;;;-141.28;40.29
12358;BME280;6243;51.244;6.774;2023-08-06T10:42:59;115150.97;;;-141.28;40.90
12358;BME280;6243;51.244;6.774;2023-08-06T10:45:26;115150.97;;;-141.28;41.09
12358;BME280;6243;51.244;6.774;2023-08-06T10:47:52;115150.97;;;-141.28;41.53
12358;BME280;6243;51.244;6.774;2023-08-06T10:50:18;115150.97;;;-141.28;40.64
12358;BME280;6243;51.244;6.774;2023-08-06T10:52:43;115150.97;;;-141.28;41.17
12358;BME280;6243;51.244;6.774;2023-08-06T10:55:09;115150.97;;;-141.28;41.24
12358;BME280;6243;51.244;6.774;2023-08-06T10:57:34;115150.97;;;-141.28;41.27
12358;BME280;6243;51.244;6.774;2023-08-06T11:00:00;115150.97;;;-141.28;41.38
12358;BME280;6243;51.244;6.774;2023-08-06T11:02:28;115150.97;;;-141.28;41.47
12358;BME280;6243;51.244;6.774;2023-08-06T11:04:53;115150.97;;;-141.28;41.19
12358;BME280;6243;51.244;6.774;2023-08-06T11:07:19;115150.97;;;-141.28;41.38
12358;BME280;6243;51.244;6.774;2023-08-06T11:09:44;115150.97;;;-141.28;41.80
12358;BME280;6243;51.244;6.774;2023-08-06T11:12:10;115150.97;;;-141.28;41.57
12358;BME280;6243;51.244;6.774;2023-08-06T11:14:35;115150.97;;;-141.28;41.90
12358;BME280;6243;51.244;6.774;2023-08-06T11:17:01;115150.97;;;-141.28;40.91
12358;BME280;6243;51.244;6.774;2023-08-06T11:19:28;115150.97;;;-141.28;40.76
12358;BME280;6243;51.244;6.774;2023-08-06T11:21:54;115150.97;;;-141.28;40.13
12358;BME280;6243;51.244;6.774;2023-08-06T11:24:20;115150.97;;;-141.28;40.37
12358;BME280;6243;51.244;6.774;2023-08-06T11:26:45;115150.97;;;-141.28;41.01
12358;BME280;6243;51.244;6.774;2023-08-06T11:29:11;115150.97;;;-141.28;40.93
12358;BME280;6243;51.244;6.774;2023-08-06T11:31:36;115150.97;;;-141.28;40.94
12358;BME280;6243;51.244;6.774;2023-08-06T11:34:02;115150.97;;;-141.28;40.12
12358;BME280;6243;51.244;6.774;2023-08-06T11:36:32;115150.97;;;-141.28;40.74
12358;BME280;6243;51.244;6.774;2023-08-06T11:38:58;115150.97;;;-141.28;42.36
12358;BME280;6243;51.244;6.774;2023-08-06T11:41:24;115150.97;;;-141.28;41.97
12358;BME280;6243;51.244;6.774;2023-08-06T11:43:49;115150.97;;;-141.28;41.80
12358;BME280;6243;51.244;6.774;2023-08-06T11:46:15;115150.97;;;-141.28;41.07
12358;BME280;6243;51.244;6.774;2023-08-06T11:48:51;115150.97;;;-141.28;41.20
12358;BME280;6243;51.244;6.774;2023-08-06T11:51:16;115150.97;;;-141.28;41.54
12358;BME280;6243;51.244;6.774;2023-08-06T11:53:48;115150.97;;;-141.28;42.10
12358;BME280;6243;51.244;6.774;2023-08-06T11:56:14;115150.97;;;-141.28;41.70
12358;BME280;6243;51.244;6.774;2023-08-06T11:58:40;115150.97;;;-141.28;41.97
12358;BME280;6243;51.244;6.774;2023-08-06T12:01:06;115150.97;;;-141.28;41.72
12358;BME280;6243;51.244;6.774;2023-08-06T12:03:31;115150.97;;;-141.28;41.39
12358;BME280;6243;51.244;6.774;2023-08-06T12:05:57;115150.97;;;-141.28;41.84
12358;BME280;6243;51.244;6.774;2023-08-06T12:08:26;115150.97;;;-141.28;41.52
12358;BME280;6243;51.244;6.774;2023-08-06T12:10:53;115150.97;;;-141.28;41.73
12358;BME280;6243;51.244;6.774;2023-08-06T12:13:18;115150.97;;;-141.28;41.55
12358;BME280;6243;51.244;6.774;2023-08-06T12:15:44;115150.97;;;-141.28;41.33
12358;BME280;6243;51.244;6.774;2023-08-06T12:18:10;115150.97;;;-141.28;40.91
12358;BME280;6243;51.244;6.774;2023-08-06T12:20:35;115150.97;;;-141.28;41.30
12358;BME280;6243;51.244;6.774;2023-08-06T12:23:01;115150.97;;;-141.28;41.65
12358;BME280;6243;51.244;6.774;2023-08-06T12:25:27;115150.97;;;-141.28;41.54
12358;BME280;6243;51.244;6.774;2023-08-06T12:27:53;115150.97;;;-141.28;41.08
12358;BME280;6243;51.244;6.774;2023-08-06T12:30:19;115150.97;;;-141.28;41.22
12358;BME280;6243;51.244;6.774;2023-08-06T12:32:44;115150.97;;;-141.28;41.76
12358;BME280;6243;51.244;6.774;2023-08-06T12:35:10;115150.97;;;-141.28;42.10